Time;durP1;ratioP1;P1;durP2;ratioP2;P2;SDS_P1;SDS_P2;PMS_P1;PMS_P2;Temp;Humidity;BMP_temperature;BMP_pressure;BME280_temperature;BME280_humidity;BME280_pressure;Samples;Min_cycle;Max_cycle;Signal;HPM_P1;HPM_P2
2022/03/05 00:01:09;;;;;;;34.28;23.58;;;;;;;1.91;53.57;94669.78;5096507;28;20188;-65
2022/03/05 00:03:36;;;;;;;26.38;20.48;;;;;;;1.97;53.47;94675.13;5096884;28;20200;-65
2022/03/05 00:06:03;;;;;;;23.15;17.67;;;;;;;1.92;53.18;94667.88;5096379;28;20261;-65
2022/03/05 00:08:30;;;;;;;21.73;17.27;;;;;;;1.93;52.90;94673.03;5097192;28;20177;-65
2022/03/05 00:10:57;;;;;;;18.25;16.08;;;;;;;1.88;52.26;94669.59;5097054;28;20181;-65
2022/03/05 00:13:25;;;;;;;19.98;16.05;;;;;;;1.83;52.23;94675.16;5096942;28;20180;-65
2022/03/05 00:15:52;;;;;;;17.55;15.68;;;;;;;1.85;52.39;94675.66;5096902;28;20219;-65
2022/03/05 00:18:19;;;;;;;28.05;19.40;;;;;;;1.85;53.39;94671.03;5097102;28;20188;-65
2022/03/05 00:20:46;;;;;;;27.08;20.02;;;;;;;1.83;53.24;94670.53;5096212;28;20233;-65
2022/03/05 00:23:14;;;;;;;18.55;16.50;;;;;;;1.83;52.67;94669.72;5096992;28;20256;-65
2022/03/05 00:25:41;;;;;;;19.67;17.67;;;;;;;1.83;52.71;94669.72;5095801;28;20196;-65
2022/03/05 00:28:08;;;;;;;32.13;22.17;;;;;;;1.85;53.58;94668.31;5095769;28;20208;-65
2022/03/05 00:30:36;;;;;;;32.92;22.13;;;;;;;1.81;53.70;94675.47;5095526;28;20232;-65
2022/03/05 00:33:03;;;;;;;26.90;19.17;;;;;;;1.78;53.29;94675.28;5095788;28;20199;-65
2022/03/05 00:35:31;;;;;;;21.92;17.95;;;;;;;1.76;53.39;94672.88;5095571;28;20313;-65
2022/03/05 00:37:58;;;;;;;17.58;15.77;;;;;;;1.76;52.43;94674.78;5095283;28;20605;-65
2022/03/05 00:40:25;;;;;;;28.52;20.73;;;;;;;1.73;53.59;94676.19;5096486;28;20185;-65
2022/03/05 00:42:52;;;;;;;30.13;22.20;;;;;;;1.66;54.52;94673.09;5095485;28;20200;-65
2022/03/05 00:45:19;;;;;;;28.00;20.38;;;;;;;1.62;53.78;94669.38;5095136;28;20196;-65
2022/03/05 00:47:47;;;;;;;19.70;16.48;;;;;;;1.54;53.61;94664.69;5096390;28;20199;-65
2022/03/05 00:50:14;;;;;;;24.50;19.50;;;;;;;1.58;54.52;94663.75;5096344;28;20188;-65
2022/03/05 00:52:41;;;;;;;27.20;20.55;;;;;;;1.50;54.23;94659.03;5095455;28;20198;-65
2022/03/05 00:55:09;;;;;;;22.40;19.98;;;;;;;1.50;54.92;94660.97;5096080;28;20646;-65
2022/03/05 00:57:36;;;;;;;22.58;19.67;;;;;;;1.49;53.99;94660.16;5095269;28;20200;-65
2022/03/05 01:00:05;;;;;;;18.33;16.63;;;;;;;1.46;53.71;94659.97;5095130;28;20196;-65
2022/03/05 01:02:32;;;;;;;18.20;16.25;;;;;;;1.42;53.98;94657.06;5096082;28;20278;-65
2022/03/05 01:05:00;;;;;;;18.65;16.65;;;;;;;1.49;53.25;94648.47;5096108;28;20184;-65
2022/03/05 01:07:27;;;;;;;25.52;19.83;;;;;;;1.47;55.03;94650.69;5094783;28;20200;-65
2022/03/05 01:09:53;;;;;;;24.00;20.25;;;;;;;1.40;55.13;94662.78;5095997;28;20192;-65
2022/03/05 01:12:21;;;;;;;22.40;19.98;;;;;;;1.39;55.78;94660.38;5095000;28;20207;-65
2022/03/05 01:14:48;;;;;;;21.25;19.00;;;;;;;1.40;55.15;94651.91;5095629;28;20227;-65
2022/03/05 01:17:15;;;;;;;22.13;19.80;;;;;;;1.44;54.31;94650.19;5094764;28;20215;-65
2022/03/05 01:19:42;;;;;;;19.77;17.83;;;;;;;1.39;55.41;94649.50;5095847;28;20297;-65
2022/03/05 01:22:10;;;;;;;20.75;18.63;;;;;;;1.41;54.78;94650.00;5094540;28;20200;-65
2022/03/05 01:24:37;;;;;;;22.35;18.63;;;;;;;1.37;55.00;94654.44;5095784;28;20215;-65
2022/03/05 01:27:04;;;;;;;20.85;18.50;;;;;;;1.34;55.59;94649.59;5096006;28;20287;-65
2022/03/05 01:29:31;;;;;;;19.63;17.65;;;;;;;1.34;55.93;94644.97;5095665;28;20204;-65
2022/03/05 01:31:58;;;;;;;19.85;17.75;;;;;;;1.35;55.32;94649.31;5094713;28;20192;-65
2022/03/05 01:34:24;;;;;;;19.17;17.20;;;;;;;1.38;54.79;94648.72;5095555;28;20189;-65
2022/03/05 01:36:51;;;;;;;19.08;17.17;;;;;;;1.40;55.33;94651.91;5095425;28;20219;-65
2022/03/05 01:39:19;;;;;;;18.42;16.73;;;;;;;1.37;55.99;94647.09;5095174;28;20195;-65
2022/03/05 01:41:48;;;;;;;19.42;17.52;;;;;;;1.37;55.76;94651.72;5094060;28;20199;-65
2022/03/05 01:44:15;;;;;;;19.83;17.92;;;;;;;1.37;55.80;94643.56;5095493;28;20192;-65
2022/03/05 01:46:42;;;;;;;18.75;16.90;;;;;;;1.38;54.90;94647.88;5094200;28;20196;-65
2022/03/05 01:49:10;;;;;;;19.05;17.35;;;;;;;1.41;55.05;94650.78;5094477;28;20543;-65
2022/03/05 01:51:37;;;;;;;18.90;16.92;;;;;;;1.43;55.41;94655.94;5095294;28;20180;-65
2022/03/05 01:54:05;;;;;;;18.45;16.75;;;;;;;1.46;54.34;94641.75;5095411;28;20194;-65
2022/03/05 01:56:33;;;;;;;19.88;17.92;;;;;;;1.47;56.04;94643.34;5094300;28;20223;-65
2022/03/05 01:59:00;;;;;;;18.20;16.50;;;;;;;1.33;56.64;94642.56;5094332;28;20238;-65
2022/03/05 02:01:28;;;;;;;18.48;16.67;;;;;;;1.24;55.84;94647.94;5094833;28;20609;-65
2022/03/05 02:03:56;;;;;;;18.75;16.85;;;;;;;1.18;54.83;94646.41;5094320;28;20531;-65
2022/03/05 02:06:24;;;;;;;19.63;17.80;;;;;;;1.25;55.17;94648.72;5094732;28;20193;-65
2022/03/05 02:08:51;;;;;;;19.65;17.63;;;;;;;1.32;54.74;94646.41;5094465;28;20204;-65
2022/03/05 02:11:18;;;;;;;19.05;17.15;;;;;;;1.38;55.11;94635.13;5093888;28;20257;-65
2022/03/05 02:13:46;;;;;;;18.80;16.92;;;;;;;1.32;55.68;94632.81;5095042;28;20194;-65
2022/03/05 02:16:13;;;;;;;18.98;17.15;;;;;;;1.35;54.97;94632.22;5094593;28;20216;-65
2022/03/05 02:18:41;;;;;;;19.80;18.05;;;;;;;1.45;54.88;94631.97;5095102;28;20180;-65
2022/03/05 02:21:09;;;;;;;19.83;17.55;;;;;;;1.54;55.95;94646.44;5093636;28;20196;-65
2022/03/05 02:23:36;;;;;;;20.90;18.80;;;;;;;1.52;54.79;94639.69;5094682;28;20196;-65
2022/03/05 02:26:04;;;;;;;20.80;18.67;;;;;;;1.50;55.33;94641.94;5094955;28;20203;-64
2022/03/05 02:28:32;;;;;;;21.48;19.35;;;;;;;1.53;54.63;94641.34;5095193;28;20192;-65
2022/03/05 02:31:00;;;;;;;20.60;18.63;;;;;;;1.55;54.88;94639.91;5095064;28;20679;-65
2022/03/05 02:33:27;;;;;;;19.05;17.27;;;;;;;1.56;55.53;94641.53;5094018;28;20253;-65
2022/03/05 02:35:54;;;;;;;20.05;18.02;;;;;;;1.49;55.98;94646.56;5095027;28;20574;-66
2022/03/05 02:38:24;;;;;;;20.05;17.88;;;;;;;1.51;56.04;94640.81;5095106;28;20200;-64
2022/03/05 02:40:52;;;;;;;19.73;17.73;;;;;;;1.55;55.44;94641.81;5094623;28;20185;-64
2022/03/05 02:43:21;;;;;;;19.95;18.02;;;;;;;1.58;55.43;94636.56;5094030;28;20196;-64
2022/03/05 02:45:48;;;;;;;20.10;18.05;;;;;;;1.63;55.71;94643.78;5093961;28;20288;-64
2022/03/05 02:48:16;;;;;;;18.67;16.88;;;;;;;1.65;55.71;94647.03;5094623;28;20196;-65
2022/03/05 02:50:44;;;;;;;19.88;17.98;;;;;;;1.56;55.60;94643.41;5094886;28;20189;-65
2022/03/05 02:53:10;;;;;;;19.48;17.52;;;;;;;1.60;55.29;94639.81;5095116;28;20199;-65
2022/03/05 02:55:39;;;;;;;20.40;18.42;;;;;;;1.63;54.83;94641.91;5097546;28;20201;-65
2022/03/05 02:58:06;;;;;;;24.02;18.98;;;;;;;1.63;54.36;94639.19;5098282;28;20189;-65
2022/03/05 03:00:33;;;;;;;22.60;20.30;;;;;;;1.69;53.83;94642.59;5098469;28;20188;-65
2022/03/05 03:03:00;;;;;;;23.63;21.33;;;;;;;1.71;53.50;94643.09;5098080;28;20180;-65
2022/03/05 03:05:27;;;;;;;24.10;21.70;;;;;;;1.71;53.80;94643.09;5097599;28;20644;-65
2022/03/05 03:07:54;;;;;;;24.38;22.00;;;;;;;1.73;53.64;94642.78;5098245;28;20201;-65
2022/03/05 03:10:21;;;;;;;24.90;22.38;;;;;;;1.74;53.75;94642.44;5097381;28;20204;-65
2022/03/05 03:12:49;;;;;;;23.70;21.33;;;;;;;1.72;53.34;94639.25;5097930;28;20511;-65
2022/03/05 03:15:17;;;;;;;24.25;21.85;;;;;;;1.72;54.09;94643.88;5097379;28;20193;-66
2022/03/05 03:17:45;;;;;;;24.33;21.83;;;;;;;1.70;54.07;94655.06;5097724;28;20208;-65
2022/03/05 03:20:13;;;;;;;25.48;22.98;;;;;;;1.74;54.24;94655.25;5098156;28;20184;-66
2022/03/05 03:22:40;;;;;;;25.92;23.17;;;;;;;1.73;54.98;94654.44;5098242;28;20187;-65
2022/03/05 03:25:08;;;;;;;28.13;25.35;;;;;;;1.71;54.33;94642.25;5097936;28;20189;-65
2022/03/05 03:27:35;;;;;;;28.45;25.48;;;;;;;1.68;54.84;94649.13;5098317;28;20223;-65
2022/03/05 03:30:05;;;;;;;28.60;25.60;;;;;;;1.68;55.53;94643.69;5096871;28;20232;-65
2022/03/05 03:32:32;;;;;;;31.10;27.40;;;;;;;1.58;56.69;94642.00;5098110;28;20207;-65
2022/03/05 03:34:58;;;;;;;31.40;28.00;;;;;;;1.47;56.40;94640.63;5097711;28;20202;-64
2022/03/05 03:37:28;;;;;;;31.17;27.98;;;;;;;1.48;56.60;94644.16;5096802;28;20205;-65
2022/03/05 03:39:55;;;;;;;32.33;28.98;;;;;;;1.51;56.36;94652.50;5097451;28;20632;-65
2022/03/05 03:42:22;;;;;;;33.05;29.02;;;;;;;1.56;56.04;94646.13;5097631;28;20185;-65
2022/03/05 03:44:49;;;;;;;30.70;27.55;;;;;;;1.60;55.86;94647.16;5097932;28;20189;-65
2022/03/05 03:47:17;;;;;;;29.17;26.23;;;;;;;1.59;56.21;94643.59;5097635;28;20187;-65
2022/03/05 03:49:44;;;;;;;33.10;29.52;;;;;;;1.55;56.82;94652.69;5097398;28;20211;-65
2022/03/05 03:52:13;;;;;;;32.20;28.80;;;;;;;1.47;57.24;94656.94;5096541;28;20215;-65
2022/03/05 03:54:40;;;;;;;33.88;30.30;;;;;;;1.43;57.04;94653.22;5097187;28;20515;-65
2022/03/05 03:57:07;;;;;;;34.00;30.52;;;;;;;1.46;56.85;94655.34;5096501;28;20208;-65
2022/03/05 03:59:34;;;;;;;37.17;33.17;;;;;;;1.42;56.48;94657.06;5096402;28;20214;-65
2022/03/05 04:02:01;;;;;;;36.08;32.40;;;;;;;1.43;56.28;94666.81;5097455;28;20189;-65
2022/03/05 04:04:29;;;;;;;35.03;31.35;;;;;;;1.41;56.55;94658.16;5095521;28;20238;-65
2022/03/05 04:09:40;;;;;;;35.92;32.17;;;;;;;1.37;56.59;94668.03;5096190;28;20202;-64
2022/03/05 04:12:08;;;;;;;35.88;31.95;;;;;;;1.32;58.14;94662.72;5096149;28;20595;-64
2022/03/05 04:14:35;;;;;;;41.55;37.00;;;;;;;1.18;58.29;94666.22;5096046;28;20597;-64
2022/03/05 04:17:02;;;;;;;44.90;40.53;;;;;;;1.12;58.84;94666.63;5096850;28;20208;-64
2022/03/05 04:19:30;;;;;;;46.90;41.92;;;;;;;1.06;58.83;94673.31;5096961;28;20195;-64
2022/03/05 04:21:57;;;;;;;49.20;44.10;;;;;;;1.06;58.47;94670.59;5096406;28;20200;-64
2022/03/05 04:24:23;;;;;;;50.53;45.28;;;;;;;1.05;57.96;94671.66;5096631;28;20180;-64
2022/03/05 04:26:50;;;;;;;52.65;47.10;;;;;;;1.05;57.47;94675.19;5097095;28;20196;-64
2022/03/05 04:29:17;;;;;;;50.15;45.13;;;;;;;1.04;57.13;94678.22;5095844;28;20192;-64
2022/03/05 04:31:44;;;;;;;45.20;40.85;;;;;;;1.01;56.62;94676.91;5096297;28;20254;-64
2022/03/05 04:34:10;;;;;;;42.53;38.33;;;;;;;0.94;56.44;94680.03;5096123;28;20643;-64
2022/03/05 04:36:39;;;;;;;43.72;39.40;;;;;;;0.90;56.01;94678.22;5096478;28;20204;-64
2022/03/05 04:39:05;;;;;;;42.13;37.83;;;;;;;0.88;55.69;94683.94;5096555;28;20195;-64
2022/03/05 04:41:32;;;;;;;41.67;37.58;;;;;;;0.84;55.50;94674.81;5095234;28;20210;-64
2022/03/05 04:43:59;;;;;;;42.63;38.47;;;;;;;0.79;55.77;94679.50;5096567;28;20243;-64
2022/03/05 04:46:26;;;;;;;42.85;38.70;;;;;;;0.77;55.18;94681.75;5096114;28;20192;-64
2022/03/05 04:48:53;;;;;;;42.95;38.60;;;;;;;0.77;55.27;94679.03;5095089;28;20600;-64
2022/03/05 04:51:20;;;;;;;43.67;39.22;;;;;;;0.80;55.33;94673.81;5095015;28;20202;-64
2022/03/05 04:53:48;;;;;;;41.55;37.67;;;;;;;0.83;55.04;94680.53;5096296;28;20193;-64
2022/03/05 04:56:15;;;;;;;41.05;36.80;;;;;;;0.85;54.77;94681.84;5096120;28;20182;-64
2022/03/05 04:58:42;;;;;;;40.63;36.53;;;;;;;0.91;54.99;94686.06;5096393;28;20185;-64
2022/03/05 05:01:10;;;;;;;39.25;35.47;;;;;;;0.79;55.37;94684.94;5095391;28;20210;-64
2022/03/05 05:03:36;;;;;;;35.72;32.13;;;;;;;0.71;54.91;94687.25;5096016;28;20196;-64
2022/03/05 05:06:05;;;;;;;36.22;32.60;;;;;;;0.75;54.99;94692.88;5096255;28;20176;-64
2022/03/05 05:08:32;;;;;;;37.22;33.40;;;;;;;0.82;55.36;94687.06;5096124;28;20181;-64
2022/03/05 05:11:00;;;;;;;35.75;32.22;;;;;;;0.89;55.19;94693.69;5096081;28;20195;-64
2022/03/05 05:13:27;;;;;;;37.75;34.05;;;;;;;0.85;56.26;94698.13;5095570;28;20593;-64
2022/03/05 05:15:53;;;;;;;37.97;34.03;;;;;;;0.75;56.60;94695.59;5094675;28;20241;-64
2022/03/05 05:18:20;;;;;;;39.67;35.47;;;;;;;0.68;56.48;94695.97;5095618;28;20216;-65
2022/03/05 05:20:47;;;;;;;41.97;37.33;;;;;;;0.61;56.92;94702.91;5095125;28;20196;-65
2022/03/05 05:23:14;;;;;;;41.10;36.75;;;;;;;0.65;56.99;94704.75;5095737;28;20189;-65
2022/03/05 05:25:41;;;;;;;37.22;32.15;;;;;;;0.73;56.95;94714.13;5095414;28;20194;-65
2022/03/05 05:28:10;;;;;;;37.67;31.17;;;;;;;0.80;56.45;94719.94;5095374;28;20623;-64
2022/03/05 05:30:37;;;;;;;40.17;31.25;;;;;;;0.89;56.57;94728.19;5095005;28;20228;-64
2022/03/05 05:33:03;;;;;;;41.10;34.25;;;;;;;0.89;57.10;94718.13;5095513;28;20211;-64
2022/03/05 05:35:30;;;;;;;52.25;44.83;;;;;;;0.88;57.64;94724.69;5095947;28;20275;-64
2022/03/05 05:37:57;;;;;;;38.85;32.72;;;;;;;0.90;57.43;94733.31;5095468;28;20196;-64
2022/03/05 05:40:24;;;;;;;36.45;32.50;;;;;;;0.93;56.79;94735.44;5095572;28;20192;-64
2022/03/05 05:42:51;;;;;;;41.75;32.72;;;;;;;1.01;56.71;94741.28;5094699;28;20204;-64
2022/03/05 05:45:19;;;;;;;39.15;30.52;;;;;;;1.03;56.33;94739.88;5095195;28;20245;-64
2022/03/05 05:47:46;;;;;;;35.08;29.05;;;;;;;1.11;56.74;94736.47;5095090;28;20643;-64
2022/03/05 05:50:13;;;;;;;32.00;28.30;;;;;;;1.12;56.79;94743.50;5094572;28;20619;-64
2022/03/05 05:52:40;;;;;;;31.75;27.83;;;;;;;1.07;57.53;94740.88;5095530;28;20185;-64
2022/03/05 05:55:07;;;;;;;33.65;29.25;;;;;;;1.08;56.83;94747.13;5094454;28;20192;-65
2022/03/05 05:57:34;;;;;;;34.88;28.90;;;;;;;1.11;56.76;94746.53;5095232;28;20581;-65
2022/03/05 06:00:01;;;;;;;38.00;31.05;;;;;;;1.15;56.95;94752.97;5094968;28;20200;-68
2022/03/05 06:02:29;;;;;;;39.97;32.55;;;;;;;1.23;56.24;94754.97;5095438;28;20190;-65
2022/03/05 06:04:56;;;;;;;42.63;38.13;;;;;;;1.27;56.60;94766.88;5094561;28;20196;-65
2022/03/05 06:07:23;;;;;;;37.67;31.60;;;;;;;1.30;56.24;94758.09;5094339;28;20200;-65
2022/03/05 06:09:49;;;;;;;34.50;29.67;;;;;;;1.32;55.46;94764.03;5094999;28;20208;-64
2022/03/05 06:12:16;;;;;;;37.28;31.50;;;;;;;1.37;55.20;94761.22;5095189;28;20199;-65
2022/03/05 06:14:43;;;;;;;32.47;27.60;;;;;;;1.48;54.71;94769.16;5094355;28;20196;-65
2022/03/05 06:17:10;;;;;;;27.08;22.38;;;;;;;1.54;54.12;94770.69;5095076;28;20208;-65
2022/03/05 06:19:38;;;;;;;21.30;19.02;;;;;;;1.64;54.24;94767.75;5094936;28;20206;-65
2022/03/05 06:22:05;;;;;;;22.92;18.45;;;;;;;1.67;53.98;94767.97;5095157;28;20219;-65
2022/03/05 06:24:32;;;;;;;20.02;18.05;;;;;;;1.71;53.00;94776.31;5095322;28;20185;-65
2022/03/05 06:26:59;;;;;;;23.15;20.90;;;;;;;1.70;52.83;94774.69;5094637;28;20207;-64
2022/03/05 06:29:25;;;;;;;22.70;20.60;;;;;;;1.70;52.25;94774.69;5098102;28;20192;-65
2022/03/05 06:31:54;;;;;;;22.08;20.00;;;;;;;1.64;52.84;94782.16;5097501;28;20232;-65
2022/03/05 06:34:21;;;;;;;22.75;20.65;;;;;;;1.65;52.70;94789.19;5098726;28;20196;-65
2022/03/05 06:36:49;;;;;;;22.63;20.33;;;;;;;1.69;53.11;94779.31;5099305;28;20184;-64
2022/03/05 06:39:16;;;;;;;23.40;21.13;;;;;;;1.77;53.17;94785.16;5098933;28;20184;-65
2022/03/05 06:41:42;;;;;;;23.42;21.15;;;;;;;1.79;52.68;94772.88;5098245;28;20212;-64
2022/03/05 06:44:09;;;;;;;23.25;21.15;;;;;;;1.87;52.97;94780.31;5099062;28;20198;-64
2022/03/05 06:46:36;;;;;;;22.25;20.20;;;;;;;1.99;52.99;94777.06;5098850;28;20189;-64
2022/03/05 06:49:03;;;;;;;22.70;20.52;;;;;;;2.07;51.91;94778.25;5097993;28;20188;-64
2022/03/05 06:51:30;;;;;;;23.63;21.30;;;;;;;2.11;52.14;94779.25;5097987;28;20531;-64
2022/03/05 06:53:58;;;;;;;22.88;20.80;;;;;;;2.13;51.30;94786.00;5098716;28;20181;-64
2022/03/05 06:56:25;;;;;;;22.40;20.25;;;;;;;2.14;51.86;94784.91;5098863;28;20188;-64
2022/03/05 06:58:52;;;;;;;22.38;20.33;;;;;;;2.20;51.28;94779.31;5097693;28;20218;-63
2022/03/05 07:01:18;;;;;;;24.40;21.88;;;;;;;2.24;52.00;94783.03;5098757;28;20283;-63
2022/03/05 07:03:45;;;;;;;22.45;20.30;;;;;;;2.27;51.22;94774.28;5097715;28;20200;-63
2022/03/05 07:06:12;;;;;;;24.13;21.98;;;;;;;2.37;51.63;94774.03;5098981;28;20185;-63
2022/03/05 07:08:39;;;;;;;23.05;20.80;;;;;;;2.45;50.75;94772.50;5098503;28;20180;-63
2022/03/05 07:11:07;;;;;;;24.00;21.75;;;;;;;2.46;51.23;94766.72;5097239;28;20202;-63
2022/03/05 07:13:35;;;;;;;23.45;21.17;;;;;;;2.52;50.76;94767.41;5097359;28;20227;-63
2022/03/05 07:16:02;;;;;;;23.25;21.00;;;;;;;2.59;50.88;94773.25;5098204;28;20181;-64
2022/03/05 07:18:29;;;;;;;23.02;20.92;;;;;;;2.58;50.45;94760.75;5097154;28;20208;-63
2022/03/05 07:20:57;;;;;;;23.45;21.15;;;;;;;2.62;50.79;94753.56;5097246;28;20196;-63
2022/03/05 07:23:24;;;;;;;24.27;22.10;;;;;;;2.66;49.60;94754.56;5097108;28;20200;-64
2022/03/05 07:25:50;;;;;;;22.52;20.50;;;;;;;2.69;49.03;94755.81;5097737;28;20609;-64
2022/03/05 07:28:19;;;;;;;23.33;20.98;;;;;;;2.68;49.60;94752.31;5097531;28;20204;-64
2022/03/05 07:30:45;;;;;;;27.35;24.65;;;;;;;2.80;50.55;94749.84;5096719;28;20236;-64
2022/03/05 07:33:12;;;;;;;30.55;27.63;;;;;;;2.92;50.00;94751.97;5098199;28;20198;-64
2022/03/05 07:35:39;;;;;;;32.47;29.35;;;;;;;3.03;49.68;94750.59;5097882;28;20268;-64
2022/03/05 07:38:06;;;;;;;32.03;29.13;;;;;;;3.04;49.27;94752.19;5097229;28;20219;-64
2022/03/05 07:40:33;;;;;;;31.23;28.25;;;;;;;3.13;49.45;94746.81;5095255;28;20196;-64
2022/03/05 07:42:59;;;;;;;31.75;28.88;;;;;;;3.18;48.96;94746.66;5097461;28;20488;-64
2022/03/05 07:45:28;;;;;;;30.88;27.88;;;;;;;3.19;49.09;94756.44;5097534;28;20191;-64
2022/03/05 07:47:54;;;;;;;30.88;27.90;;;;;;;3.24;48.75;94750.84;5096978;28;20189;-66
2022/03/05 07:50:21;;;;;;;29.00;26.33;;;;;;;3.25;49.13;94751.66;5098083;28;20181;-65
2022/03/05 07:52:48;;;;;;;28.27;25.60;;;;;;;3.29;48.74;94752.63;5096933;28;20291;-65
2022/03/05 07:55:15;;;;;;;27.50;24.85;;;;;;;3.30;48.30;94749.59;5097448;28;20830;-65
2022/03/05 07:57:42;;;;;;;27.05;24.45;;;;;;;3.30;47.96;94752.31;5097404;28;20215;-65
2022/03/05 08:00:10;;;;;;;27.67;23.77;;;;;;;3.33;48.12;94753.59;5096198;28;20203;-65
2022/03/05 08:02:38;;;;;;;26.15;23.75;;;;;;;3.41;47.48;94750.09;5096720;28;20203;-65
2022/03/05 08:05:06;;;;;;;28.85;26.10;;;;;;;3.38;48.25;94746.09;5096434;28;20588;-65
2022/03/05 08:07:33;;;;;;;34.22;30.90;;;;;;;3.38;48.87;94759.75;5097249;28;20180;-65
2022/03/05 08:09:59;;;;;;;34.70;31.20;;;;;;;3.45;48.64;94763.91;5096932;28;20203;-65
2022/03/05 08:12:26;;;;;;;31.77;28.77;;;;;;;3.51;48.62;94762.66;5095982;28;20192;-65
2022/03/05 08:14:53;;;;;;;37.05;33.45;;;;;;;3.55;48.49;94760.91;5096524;28;20199;-65
2022/03/05 08:17:20;;;;;;;39.78;35.78;;;;;;;3.56;48.18;94762.53;5096760;28;20618;-65
2022/03/05 08:19:48;;;;;;;40.63;36.83;;;;;;;3.53;48.76;94754.97;5096995;28;20203;-65
2022/03/05 08:22:15;;;;;;;39.58;35.58;;;;;;;3.53;48.21;94758.50;5096062;28;20192;-65
2022/03/05 08:24:42;;;;;;;39.35;35.58;;;;;;;3.58;48.24;94761.09;5096709;28;20612;-65
2022/03/05 08:27:09;;;;;;;39.85;36.05;;;;;;;3.57;48.46;94764.13;5097236;28;20204;-65
2022/03/05 08:29:36;;;;;;;40.65;36.53;;;;;;;3.69;48.76;94758.88;5096838;28;20181;-66
2022/03/05 08:32:03;;;;;;;40.15;36.22;;;;;;;3.77;48.78;94754.56;5096773;28;20236;-65
2022/03/05 08:34:29;;;;;;;38.67;35.00;;;;;;;3.76;48.77;94756.47;5096731;28;20198;-65
2022/03/05 08:36:58;;;;;;;38.58;34.72;;;;;;;3.79;47.66;94753.13;5096641;28;20188;-65
2022/03/05 08:39:25;;;;;;;38.20;34.42;;;;;;;3.82;47.75;94754.41;5095539;28;20211;-65
2022/03/05 08:41:52;;;;;;;36.08;32.47;;;;;;;3.81;47.88;94753.63;5095603;28;20200;-65
2022/03/05 08:44:19;;;;;;;40.03;36.15;;;;;;;3.84;47.95;94757.63;5095601;28;20200;-65
2022/03/05 08:46:46;;;;;;;42.45;38.45;;;;;;;3.89;47.71;94762.16;5096214;28;20262;-65
2022/03/05 08:49:13;;;;;;;44.03;39.72;;;;;;;3.93;47.41;94763.13;5095425;28;20533;-65
2022/03/05 08:51:40;;;;;;;45.17;40.60;;;;;;;3.89;47.16;94760.22;5094755;28;20292;-65
2022/03/05 08:54:08;;;;;;;45.03;40.55;;;;;;;3.90;47.72;94750.91;5095365;28;20201;-65
2022/03/05 08:56:35;;;;;;;47.30;42.65;;;;;;;4.02;48.47;94753.81;5095420;28;20204;-65
2022/03/05 08:59:01;;;;;;;46.88;42.05;;;;;;;4.09;47.89;94753.34;5096282;28;20205;-65
2022/03/05 09:01:28;;;;;;;42.95;38.72;;;;;;;4.17;47.93;94758.00;5095297;28;20640;-70
2022/03/05 09:03:55;;;;;;;48.30;43.20;;;;;;;4.29;48.72;94757.38;5095166;28;20625;-66
2022/03/05 09:06:22;;;;;;;45.08;40.47;;;;;;;4.41;48.69;94754.00;5096185;28;20191;-68
2022/03/05 09:08:49;;;;;;;37.80;31.83;;;;;;;4.48;48.38;94760.59;5095162;28;20622;-65
2022/03/05 09:11:17;;;;;;;41.35;37.05;;;;;;;4.50;48.15;94758.34;5095954;28;20188;-65
2022/03/05 09:13:44;;;;;;;65.35;59.10;;;;;;;4.53;48.55;94754.16;5095101;28;20199;-65
2022/03/05 09:16:11;;;;;;;50.90;46.47;;;;;;;4.53;48.58;94751.41;5095584;28;20222;-65
2022/03/05 09:18:37;;;;;;;56.08;50.92;;;;;;;4.56;48.98;94751.56;5095747;28;20669;-65
2022/03/05 09:21:04;;;;;;;60.70;55.33;;;;;;;4.66;49.92;94745.00;5095941;28;20191;-65
2022/03/05 09:23:31;;;;;;;48.97;44.35;;;;;;;4.78;48.99;94747.06;5095727;28;20195;-65
2022/03/05 09:25:58;;;;;;;28.95;26.08;;;;;;;4.73;50.52;94747.22;5094714;28;20207;-65
2022/03/05 09:28:26;;;;;;;24.48;22.10;;;;;;;4.63;52.88;94753.81;5095448;28;20597;-65
2022/03/05 09:30:53;;;;;;;23.15;20.73;;;;;;;4.44;54.05;94756.88;5095331;28;20326;-65
2022/03/05 09:33:22;;;;;;;22.63;20.38;;;;;;;4.42;54.03;94748.19;5094833;28;20201;-65
2022/03/05 09:35:49;;;;;;;23.45;21.25;;;;;;;4.68;54.30;94744.66;5095646;28;20188;-65
2022/03/05 09:38:16;;;;;;;21.65;19.35;;;;;;;4.74;54.60;94743.38;5095424;28;20329;-65
2022/03/05 09:40:43;;;;;;;21.15;19.05;;;;;;;4.78;54.66;94736.91;5095713;28;20270;-65
2022/03/05 09:43:10;;;;;;;21.45;19.45;;;;;;;4.66;55.15;94734.06;5094662;28;20195;-65
2022/03/05 09:45:38;;;;;;;19.38;17.48;;;;;;;4.80;55.14;94729.22;5095473;28;20195;-65
2022/03/05 09:48:06;;;;;;;21.25;19.00;;;;;;;4.72;54.01;94731.94;5095414;28;20562;-65
2022/03/05 09:50:32;;;;;;;22.42;20.33;;;;;;;4.85;53.87;94728.25;5095766;28;20192;-65
2022/03/05 09:52:59;;;;;;;21.73;19.52;;;;;;;4.97;53.66;94733.03;5094086;28;20193;-65
2022/03/05 09:55:26;;;;;;;22.42;20.13;;;;;;;5.51;55.73;94736.84;5095022;28;20640;-65
2022/03/05 09:57:53;;;;;;;23.77;21.33;;;;;;;5.93;53.85;94730.72;5095218;28;20203;-65
2022/03/05 10:00:20;;;;;;;25.73;22.92;;;;;;;5.94;53.19;94729.59;5095282;28;20185;-65
2022/03/05 10:02:49;;;;;;;23.10;21.00;;;;;;;5.87;51.82;94729.28;5094535;28;20199;-65
2022/03/05 10:05:20;;;;;;;19.27;17.52;;;;;;;5.41;51.99;94730.94;5095242;28;20245;-65
2022/03/05 10:08:01;;;;;;;20.42;18.40;;;;;;;5.40;53.21;94727.41;5095167;28;20188;-64
2022/03/05 10:10:28;;;;;;;19.58;17.80;;;;;;;5.47;53.34;94732.38;5094407;28;20208;-65
2022/03/05 10:12:55;;;;;;;21.15;19.10;;;;;;;5.44;52.89;94725.63;5094902;28;20238;-65
2022/03/05 10:15:22;;;;;;;21.83;19.73;;;;;;;5.43;53.11;94726.75;5094202;28;20203;-65
2022/03/05 10:18:01;;;;;;;24.33;22.02;;;;;;;5.35;52.76;94722.13;5095531;28;20218;-65
2022/03/05 10:20:29;;;;;;;20.15;18.35;;;;;;;5.40;53.45;94727.41;5095096;28;20188;-64
2022/03/05 10:22:58;;;;;;;19.90;18.08;;;;;;;5.31;52.63;94729.41;5093910;28;20185;-64
2022/03/05 10:25:37;;;;;;;22.00;19.95;;;;;;;5.19;53.16;94721.06;5094140;28;20192;-64
2022/03/05 10:28:07;;;;;;;22.25;20.08;;;;;;;4.94;53.86;94720.00;5094891;28;20200;-64
2022/03/05 10:30:35;;;;;;;21.30;19.23;;;;;;;4.84;55.12;94723.91;5093824;28;20246;-65
2022/03/05 10:33:04;;;;;;;20.55;18.55;;;;;;;4.80;54.35;94718.28;5094221;28;20193;-64
2022/03/05 10:35:31;;;;;;;27.98;25.17;;;;;;;4.79;55.24;94726.78;5094902;28;20184;-64
2022/03/05 10:37:58;;;;;;;21.63;19.55;;;;;;;4.66;55.35;94725.88;5094892;28;20181;-64
2022/03/05 10:40:33;;;;;;;24.73;22.40;;;;;;;4.81;55.87;94719.88;5094932;28;20189;-65
2022/03/05 10:43:02;;;;;;;21.73;19.77;;;;;;;4.81;55.69;94713.63;5094949;28;20285;-64
2022/03/05 10:45:29;;;;;;;21.50;19.58;;;;;;;4.89;55.48;94723.72;5094870;28;20188;-64
2022/03/05 10:47:59;;;;;;;19.38;17.67;;;;;;;5.06;55.51;94717.41;5094961;28;20196;-64
2022/03/05 10:50:29;;;;;;;20.40;18.60;;;;;;;5.23;54.91;94716.56;5094456;28;20196;-64
2022/03/05 10:53:00;;;;;;;19.52;17.83;;;;;;;5.31;55.09;94707.53;5094987;28;20196;-64
2022/03/05 10:55:28;;;;;;;20.08;18.35;;;;;;;5.01;55.16;94701.19;5094101;28;20253;-64
2022/03/05 10:58:00;;;;;;;20.85;18.85;;;;;;;4.93;55.99;94704.75;5094519;28;20181;-65
2022/03/05 11:00:27;;;;;;;19.45;17.60;;;;;;;4.96;55.80;94704.09;5093798;28;20223;-64
2022/03/05 11:02:55;;;;;;;20.15;18.35;;;;;;;5.00;56.28;94699.59;5094858;28;20187;-64
2022/03/05 11:05:25;;;;;;;20.20;18.40;;;;;;;5.13;56.57;94697.78;5093879;28;20219;-64
2022/03/05 11:07:54;;;;;;;20.67;18.75;;;;;;;5.14;56.38;94693.91;5094903;28;20600;-64
2022/03/05 11:10:24;;;;;;;21.50;19.55;;;;;;;5.07;56.24;94694.41;5094625;28;20192;-65
2022/03/05 11:12:56;;;;;;;21.10;19.02;;;;;;;5.09;56.98;94692.16;5094086;28;20203;-65
2022/03/05 11:15:23;;;;;;;21.13;19.15;;;;;;;5.18;56.86;94690.19;5096440;28;20258;-65
2022/03/05 11:17:50;;;;;;;20.90;19.10;;;;;;;5.28;56.59;94678.09;5098329;28;20246;-65
2022/03/05 11:20:17;;;;;;;20.33;18.63;;;;;;;5.32;56.70;94677.09;5098163;28;20205;-65
2022/03/05 11:22:49;;;;;;;20.65;18.77;;;;;;;5.44;56.66;94672.84;5097829;28;20176;-65
2022/03/05 11:25:19;;;;;;;20.55;18.70;;;;;;;5.53;56.47;94674.44;5097678;28;20199;-64
2022/03/05 11:28:03;;;;;;;21.58;19.63;;;;;;;5.71;57.21;94669.66;5098143;28;20196;-65